createdAt,value
2022-09-16T00:00:09.034Z,946.25
2022-09-16T00:01:09.246Z,946.24
2022-09-16T00:02:09.104Z,946.26
2022-09-16T00:03:09.004Z,946.28
2022-09-16T00:04:08.989Z,946.28
2022-09-16T00:05:08.982Z,946.31
2022-09-16T00:06:08.997Z,946.3
2022-09-16T00:07:08.958Z,946.3
2022-09-16T00:08:08.946Z,946.32
2022-09-16T00:09:08.941Z,946.3
2022-09-16T00:10:08.924Z,946.3
2022-09-16T00:11:08.914Z,946.33
2022-09-16T00:12:08.901Z,946.34
2022-09-16T00:13:08.894Z,946.31
2022-09-16T00:14:08.880Z,946.33
2022-09-16T00:15:08.874Z,946.35
2022-09-16T00:16:08.899Z,946.27
2022-09-16T00:17:08.849Z,946.32
2022-09-16T00:18:08.838Z,946.32
2022-09-16T00:19:08.827Z,946.27
2022-09-16T00:20:08.816Z,946.26
2022-09-16T00:21:08.806Z,946.24
2022-09-16T00:22:08.825Z,946.21
2022-09-16T00:23:08.782Z,946.21
2022-09-16T00:24:08.773Z,946.23
2022-09-16T00:25:08.759Z,946.27
2022-09-16T00:26:08.751Z,946.23
2022-09-16T00:27:08.738Z,946.23
2022-09-16T00:28:08.732Z,946.23
2022-09-16T00:29:08.716Z,946.27
2022-09-16T00:30:08.706Z,946.23
2022-09-16T00:31:08.760Z,946.28
2022-09-16T00:32:08.686Z,946.25
2022-09-16T00:33:08.673Z,946.23
2022-09-16T00:34:08.662Z,946.23
2022-09-16T00:35:08.650Z,946.2
2022-09-16T00:36:08.642Z,946.23
2022-09-16T00:37:08.627Z,946.28
2022-09-16T00:38:08.650Z,946.24
2022-09-16T00:39:08.605Z,946.27
2022-09-16T00:40:08.660Z,946.28
2022-09-16T00:41:08.585Z,946.25
2022-09-16T00:42:08.574Z,946.22
2022-09-16T00:43:08.561Z,946.24
2022-09-16T00:44:08.552Z,946.22
2022-09-16T00:45:08.541Z,946.21
2022-09-16T00:46:08.528Z,946.2
2022-09-16T00:47:08.602Z,946.23
2022-09-16T00:48:08.509Z,946.22
2022-09-16T00:49:08.493Z,946.22
2022-09-16T00:50:08.491Z,946.23
2022-09-16T00:51:08.474Z,946.21
2022-09-16T00:52:08.462Z,946.23
2022-09-16T00:53:08.450Z,946.24
2022-09-16T00:54:08.471Z,946.2
2022-09-16T00:55:08.428Z,946.25
2022-09-16T00:56:08.420Z,946.22
2022-09-16T00:57:08.406Z,946.24
2022-09-16T00:58:08.397Z,946.24
2022-09-16T00:59:08.387Z,946.28
2022-09-16T01:00:08.376Z,946.24
2022-09-16T01:01:08.413Z,946.21
2022-09-16T01:02:08.395Z,946.23
2022-09-16T01:03:08.337Z,946.27
2022-09-16T01:04:08.330Z,946.28
2022-09-16T01:05:08.317Z,946.29
2022-09-16T01:06:08.307Z,946.31
2022-09-16T01:07:08.291Z,946.3
2022-09-16T01:08:08.282Z,946.31
2022-09-16T01:09:08.273Z,946.3
2022-09-16T01:10:08.290Z,946.32
2022-09-16T01:11:08.252Z,946.35
2022-09-16T01:12:08.238Z,946.31
2022-09-16T01:13:08.240Z,946.33
2022-09-16T01:14:08.218Z,946.34
2022-09-16T01:15:08.203Z,946.31
2022-09-16T01:16:08.273Z,946.28
2022-09-16T01:17:08.184Z,946.26
2022-09-16T01:18:08.168Z,946.22
2022-09-16T01:19:08.159Z,946.16
2022-09-16T01:20:08.147Z,946.17
2022-09-16T01:21:08.137Z,946.13
2022-09-16T01:22:08.125Z,946.09
2022-09-16T01:23:08.116Z,946.02
2022-09-16T01:24:08.104Z,946
2022-09-16T01:25:08.090Z,946.05
2022-09-16T01:26:08.110Z,946.08
2022-09-16T01:27:08.070Z,946.04
2022-09-16T01:28:08.055Z,946.05
2022-09-16T01:29:08.046Z,946.05
2022-09-16T01:30:08.036Z,946.1
2022-09-16T01:31:08.053Z,946.1
2022-09-16T01:32:08.012Z,946.13
2022-09-16T01:33:08.001Z,946.15
2022-09-16T01:34:07.988Z,946.17
2022-09-16T01:35:07.979Z,946.22
2022-09-16T01:36:07.963Z,946.19
2022-09-16T01:37:07.956Z,946.19
2022-09-16T01:38:07.943Z,946.23
2022-09-16T01:39:07.933Z,946.21
2022-09-16T01:40:07.957Z,946.24
2022-09-16T01:41:07.911Z,946.23
2022-09-16T01:42:07.920Z,946.2
2022-09-16T01:43:07.885Z,946.22
2022-09-16T01:44:07.875Z,946.15
2022-09-16T01:45:07.864Z,946.19
2022-09-16T01:46:07.899Z,946.17
2022-09-16T01:47:07.839Z,946.18
2022-09-16T01:48:07.829Z,946.15
2022-09-16T01:49:07.817Z,946.18
2022-09-16T01:50:07.805Z,946.19
2022-09-16T01:51:07.794Z,946.18
2022-09-16T01:52:07.781Z,946.18
2022-09-16T01:53:07.772Z,946.2
2022-09-16T01:54:07.760Z,946.19
2022-09-16T01:55:07.748Z,946.18
2022-09-16T01:56:07.737Z,946.21
2022-09-16T01:57:07.725Z,946.21
2022-09-16T01:58:07.742Z,946.24
2022-09-16T01:59:07.704Z,946.27
2022-09-16T02:00:07.700Z,946.24
2022-09-16T02:01:07.682Z,946.21
2022-09-16T02:02:07.820Z,946.24
2022-09-16T02:03:07.656Z,946.18
2022-09-16T02:04:07.646Z,946.15
2022-09-16T02:05:07.635Z,946.2
2022-09-16T02:06:07.626Z,946.17
2022-09-16T02:07:07.609Z,946.2
2022-09-16T02:08:07.599Z,946.12
2022-09-16T02:09:07.586Z,946.1
2022-09-16T02:10:07.578Z,946.09
2022-09-16T02:11:07.564Z,946.08
2022-09-16T02:12:07.553Z,946.05
2022-09-16T02:13:07.539Z,946.06
2022-09-16T02:14:07.553Z,946.09
2022-09-16T02:15:07.518Z,946.05
2022-09-16T02:16:07.562Z,946.04
2022-09-16T02:17:07.492Z,946.03
2022-09-16T02:18:07.482Z,946.05
2022-09-16T02:19:07.473Z,946.01
2022-09-16T02:20:07.459Z,946.02
2022-09-16T02:21:07.546Z,946.02
2022-09-16T02:22:07.436Z,946
2022-09-16T02:23:07.425Z,946.03
2022-09-16T02:24:07.414Z,946.04
2022-09-16T02:25:07.404Z,946.04
2022-09-16T02:26:07.390Z,946.03
2022-09-16T02:27:07.377Z,946.02
2022-09-16T02:28:07.368Z,946.02
2022-09-16T02:29:07.355Z,946.05
2022-09-16T02:30:07.377Z,946.03
2022-09-16T02:31:07.401Z,946.03
2022-09-16T02:32:07.323Z,946.03
2022-09-16T02:33:07.309Z,946.02
2022-09-16T02:34:07.303Z,946.06
2022-09-16T02:35:07.287Z,946.05
2022-09-16T02:36:07.276Z,946.08
2022-09-16T02:37:07.264Z,946.02
2022-09-16T02:38:07.252Z,946.04
2022-09-16T02:39:07.241Z,946.03
2022-09-16T02:40:07.293Z,946.08
2022-09-16T02:41:07.219Z,946.06
2022-09-16T02:42:07.206Z,946.05
2022-09-16T02:43:07.196Z,946.05
2022-09-16T02:44:07.184Z,946.09
2022-09-16T02:45:07.171Z,946.07
2022-09-16T02:46:07.216Z,946.08
2022-09-16T02:47:07.148Z,946.05
2022-09-16T02:48:07.142Z,946.08
2022-09-16T02:49:07.123Z,946.08
2022-09-16T02:50:07.114Z,946.08
2022-09-16T02:51:07.101Z,946.08
2022-09-16T02:52:07.095Z,946.07
2022-09-16T02:53:07.078Z,946.07
2022-09-16T02:54:07.069Z,946.11
2022-09-16T02:55:07.056Z,946.16
2022-09-16T02:56:07.047Z,946.17
2022-09-16T02:57:07.033Z,946.15
2022-09-16T02:58:07.027Z,946.17
2022-09-16T02:59:07.012Z,946.11
2022-09-16T03:00:06.996Z,946.17
2022-09-16T03:01:06.987Z,946.13
2022-09-16T03:02:07.038Z,946.15
2022-09-16T03:03:06.991Z,946.13
2022-09-16T03:04:06.951Z,946.11
2022-09-16T03:05:06.942Z,946.06
2022-09-16T03:06:06.930Z,946.06
2022-09-16T03:07:06.921Z,946.06
2022-09-16T03:08:06.906Z,946.07
2022-09-16T03:09:06.897Z,946.05
2022-09-16T03:10:06.883Z,946.01
2022-09-16T03:11:06.872Z,946.03
2022-09-16T03:12:06.859Z,946.06
2022-09-16T03:13:06.849Z,946.04
2022-09-16T03:14:06.837Z,946.02
2022-09-16T03:15:06.826Z,946.01
2022-09-16T03:16:06.880Z,946.05
2022-09-16T03:17:06.803Z,946.04
2022-09-16T03:18:06.818Z,946.02
2022-09-16T03:19:06.800Z,945.99
2022-09-16T03:20:06.769Z,946.05
2022-09-16T03:21:06.757Z,946.04
2022-09-16T03:22:06.744Z,946.05
2022-09-16T03:23:06.735Z,946.08
2022-09-16T03:24:06.722Z,946.08
2022-09-16T03:25:06.718Z,946.11
2022-09-16T03:26:06.700Z,946.1
2022-09-16T03:27:06.688Z,946.08
2022-09-16T03:28:06.676Z,946.08
2022-09-16T03:29:06.665Z,946.08
2022-09-16T03:30:06.654Z,946.06
2022-09-16T03:31:06.673Z,946.05
2022-09-16T03:32:06.670Z,946.06
2022-09-16T03:49:16.166Z,945.95
2022-09-16T03:50:16.125Z,945.95
2022-09-16T03:51:16.108Z,946
2022-09-16T03:52:16.095Z,945.99
2022-09-16T03:53:16.078Z,946.04
2022-09-16T03:54:16.069Z,946
2022-09-16T03:55:16.051Z,945.97
2022-09-16T03:56:16.038Z,945.96
2022-09-16T03:57:16.023Z,945.99
2022-09-16T03:58:16.012Z,945.99
2022-09-16T03:59:16.098Z,946
2022-09-16T04:00:15.986Z,945.99
2022-09-16T04:01:16.010Z,945.98
2022-09-16T04:02:15.977Z,945.96
2022-09-16T04:03:15.946Z,945.91
2022-09-16T04:04:15.934Z,945.94
2022-09-16T04:05:15.945Z,945.93
2022-09-16T04:06:15.911Z,945.93
2022-09-16T04:07:15.898Z,945.91
2022-09-16T04:08:15.890Z,945.9
2022-09-16T04:09:15.872Z,945.94
2022-09-16T04:10:15.861Z,945.92
2022-09-16T04:11:15.849Z,945.92
2022-09-16T04:12:15.840Z,945.9
2022-09-16T04:13:15.824Z,945.95
2022-09-16T04:14:15.963Z,945.94
2022-09-16T04:15:15.800Z,945.96
2022-09-16T04:16:15.890Z,945.95
2022-09-16T04:17:15.776Z,945.97
2022-09-16T04:18:15.768Z,945.96
2022-09-16T04:19:15.905Z,945.97
2022-09-16T04:20:15.744Z,945.95
2022-09-16T04:21:15.755Z,945.94
2022-09-16T04:22:15.718Z,945.95
2022-09-16T04:23:15.707Z,945.97
2022-09-16T04:24:15.695Z,945.96
2022-09-16T04:25:15.683Z,945.9
2022-09-16T04:26:15.673Z,945.91
2022-09-16T04:27:15.665Z,945.94
2022-09-16T04:28:15.651Z,945.92
2022-09-16T04:29:15.736Z,945.91
2022-09-16T04:30:15.624Z,945.89
2022-09-16T04:31:15.669Z,945.9
2022-09-16T04:32:15.602Z,945.94
2022-09-16T04:33:15.588Z,945.91
2022-09-16T04:34:15.579Z,945.9
2022-09-16T04:35:15.566Z,945.89
2022-09-16T04:36:15.560Z,945.91
2022-09-16T04:37:15.576Z,945.92
2022-09-16T04:38:15.533Z,945.88
2022-09-16T04:39:15.525Z,945.88
2022-09-16T04:40:15.543Z,945.82
2022-09-16T04:41:15.497Z,945.85
2022-09-16T04:42:15.485Z,945.86
2022-09-16T04:43:15.475Z,945.83
2022-09-16T04:44:15.614Z,945.87
2022-09-16T04:45:15.451Z,945.84
2022-09-16T04:46:15.483Z,945.82
2022-09-16T04:47:15.428Z,945.89
2022-09-16T04:48:15.416Z,945.88
2022-09-16T04:49:15.561Z,945.86
2022-09-16T04:50:15.399Z,945.89
2022-09-16T04:51:15.382Z,945.9
2022-09-16T04:52:15.370Z,945.86
2022-09-16T04:53:15.388Z,945.84
2022-09-16T04:54:15.347Z,945.85
2022-09-16T04:55:15.336Z,945.85
2022-09-16T04:56:15.324Z,945.85
2022-09-16T04:57:15.317Z,945.86
2022-09-16T04:58:15.301Z,945.89
2022-09-16T04:59:15.293Z,945.93
2022-09-16T05:00:15.278Z,945.9
2022-09-16T05:01:15.305Z,945.89
2022-09-16T05:02:15.257Z,945.85
2022-09-16T05:03:15.265Z,945.89
2022-09-16T05:04:15.235Z,945.87
2022-09-16T05:05:15.221Z,945.88
2022-09-16T05:06:19.837Z,945.84
2022-09-16T05:07:15.200Z,945.84
2022-09-16T05:08:15.190Z,945.84
2022-09-16T05:09:15.299Z,945.85
2022-09-16T05:10:15.164Z,945.88
2022-09-16T05:11:15.155Z,945.83
2022-09-16T05:12:15.141Z,945.86
2022-09-16T05:13:15.133Z,945.91
2022-09-16T05:14:15.117Z,945.88
2022-09-16T05:15:15.108Z,945.89
2022-09-16T05:16:15.131Z,945.9
2022-09-16T05:17:27.830Z,945.9
2022-09-16T05:18:15.072Z,945.9
2022-09-16T05:19:15.063Z,945.88
2022-09-16T05:20:15.049Z,945.89
2022-09-16T05:21:15.043Z,945.86
2022-09-16T05:22:15.028Z,945.91
2022-09-16T05:23:15.020Z,945.93
2022-09-16T05:24:15.032Z,945.92
2022-09-16T05:25:15.120Z,945.94
2022-09-16T05:26:14.985Z,945.9
2022-09-16T05:27:14.973Z,945.9
2022-09-16T05:28:14.963Z,945.9
2022-09-16T05:29:14.952Z,945.86
2022-09-16T05:30:14.937Z,945.89
2022-09-16T05:31:14.942Z,945.92
2022-09-16T05:32:14.917Z,945.9
2022-09-16T05:33:14.906Z,945.92
2022-09-16T05:34:14.893Z,945.88
2022-09-16T05:35:14.881Z,945.87
2022-09-16T05:36:14.871Z,945.94
2022-09-16T05:37:14.861Z,945.9
2022-09-16T05:38:14.851Z,945.93
2022-09-16T05:39:23.546Z,945.95
2022-09-16T05:40:14.874Z,945.92
2022-09-16T05:41:14.935Z,945.95
2022-09-16T05:42:14.806Z,945.93
2022-09-16T05:43:14.793Z,945.95
2022-09-16T05:44:14.784Z,945.94
2022-09-16T05:45:14.771Z,946
2022-09-16T05:46:14.820Z,945.98
2022-09-16T05:47:14.749Z,945.97
2022-09-16T05:48:14.738Z,945.99
2022-09-16T05:49:14.725Z,946.02
2022-09-16T05:50:14.717Z,946.05
2022-09-16T05:51:17.593Z,945.98
2022-09-16T05:52:14.692Z,946
2022-09-16T05:53:14.680Z,946.03
2022-09-16T05:54:14.721Z,946.01
2022-09-16T05:55:14.661Z,946.03
2022-09-16T05:56:14.647Z,946
2022-09-16T05:57:14.761Z,946.02
2022-09-16T05:58:14.625Z,945.97
2022-09-16T05:59:14.612Z,946.01
2022-09-16T06:00:14.602Z,945.97
2022-09-16T06:01:14.638Z,945.98
2022-09-16T06:02:14.626Z,945.95
2022-09-16T06:03:14.568Z,945.99
2022-09-16T06:04:14.557Z,945.93
2022-09-16T06:05:14.545Z,945.95
2022-09-16T06:06:14.537Z,945.96
2022-09-16T06:07:14.531Z,945.91
2022-09-16T06:08:14.514Z,945.9
2022-09-16T06:09:14.500Z,945.91
2022-09-16T06:10:14.492Z,945.93
2022-09-16T06:11:14.477Z,946.06
2022-09-16T06:12:14.467Z,945.98
2022-09-16T06:13:14.578Z,945.99
2022-09-16T06:14:14.449Z,946.01
2022-09-16T06:15:14.434Z,946.03
2022-09-16T06:16:14.448Z,946
2022-09-16T06:17:14.412Z,945.93
2022-09-16T06:18:14.403Z,945.96
2022-09-16T06:19:14.391Z,945.94
2022-09-16T06:20:14.380Z,945.97
2022-09-16T06:21:14.370Z,945.98
2022-09-16T06:22:14.357Z,945.97
2022-09-16T06:23:14.349Z,945.97
2022-09-16T06:24:14.385Z,945.95
2022-09-16T06:25:14.330Z,945.96
2022-09-16T06:26:14.312Z,945.98
2022-09-16T06:27:14.304Z,945.96
2022-09-16T06:28:14.290Z,945.98
2022-09-16T06:29:14.569Z,945.95
2022-09-16T06:30:14.268Z,945.98
2022-09-16T06:31:14.348Z,945.98
2022-09-16T06:32:14.247Z,945.97
2022-09-16T06:33:14.237Z,945.98
2022-09-16T06:34:14.227Z,945.94
2022-09-16T06:35:14.216Z,945.93
2022-09-16T06:36:14.206Z,945.96
2022-09-16T06:37:14.195Z,945.96
2022-09-16T06:38:14.182Z,945.97
2022-09-16T06:39:14.183Z,945.98
2022-09-16T06:40:14.190Z,945.96
2022-09-16T06:41:14.152Z,945.98
2022-09-16T06:42:14.139Z,945.96
2022-09-16T06:43:14.132Z,945.97
2022-09-16T06:44:14.129Z,945.98
2022-09-16T06:45:14.234Z,945.98
2022-09-16T06:46:14.132Z,945.98
2022-09-16T06:47:14.089Z,945.97
2022-09-16T06:48:14.075Z,945.99
2022-09-16T06:49:14.065Z,945.95
2022-09-16T06:50:14.053Z,945.94
2022-09-16T06:51:14.046Z,945.92
2022-09-16T06:52:14.032Z,945.89
2022-09-16T06:53:14.026Z,945.92
2022-09-16T06:54:14.010Z,945.88
2022-09-16T06:55:14.000Z,945.9
2022-09-16T06:56:13.988Z,945.91
2022-09-16T06:57:13.980Z,945.93
2022-09-16T06:58:13.969Z,945.94
2022-09-16T06:59:13.959Z,945.97
2022-09-16T07:00:13.947Z,945.94
2022-09-16T07:01:14.102Z,946
2022-09-16T07:02:13.965Z,946.01
2022-09-16T07:03:13.917Z,946.05
2022-09-16T07:04:13.904Z,946.02
2022-09-16T07:05:13.896Z,946.03
2022-09-16T07:06:13.888Z,946.05
2022-09-16T07:07:13.873Z,946.02
2022-09-16T07:08:13.862Z,946.02
2022-09-16T07:09:13.854Z,946
2022-09-16T07:10:13.843Z,946
2022-09-16T07:11:13.834Z,946.02
2022-09-16T07:12:17.505Z,946.03
2022-09-16T07:13:13.812Z,946
2022-09-16T07:14:13.812Z,946
2022-09-16T07:15:13.795Z,945.98
2022-09-16T07:16:14.306Z,946.05
2022-09-16T07:17:13.929Z,946
2022-09-16T07:18:13.767Z,946.05
2022-09-16T07:19:13.754Z,946.01
2022-09-16T07:20:13.739Z,946
2022-09-16T07:21:13.727Z,946
2022-09-16T07:22:13.719Z,946.02
2022-09-16T07:23:13.710Z,946.02
2022-09-16T07:24:13.698Z,946.04
2022-09-16T07:25:13.687Z,946.04
2022-09-16T07:26:13.678Z,946.04
2022-09-16T07:27:13.672Z,946
2022-09-16T07:28:13.657Z,946.04
2022-09-16T07:29:13.646Z,946.04
2022-09-16T07:30:13.637Z,946.03
2022-09-16T07:31:13.674Z,946.05
2022-09-16T07:32:13.615Z,946.05
2022-09-16T07:33:13.725Z,946.05
2022-09-16T07:34:13.605Z,946.02
2022-09-16T07:35:13.583Z,946.01
2022-09-16T07:36:13.574Z,945.99
2022-09-16T07:37:13.562Z,945.97
2022-09-16T07:38:13.556Z,945.95
2022-09-16T07:39:13.545Z,945.97
2022-09-16T07:40:13.629Z,945.97
2022-09-16T07:41:13.522Z,945.99
2022-09-16T07:42:13.515Z,945.99
2022-09-16T07:43:13.501Z,945.97
2022-09-16T07:44:13.495Z,945.96
2022-09-16T07:45:13.481Z,945.96
2022-09-16T07:46:13.554Z,945.94
2022-09-16T07:47:13.462Z,945.95
2022-09-16T07:48:13.453Z,945.97
2022-09-16T07:49:13.564Z,945.95
2022-09-16T07:50:13.433Z,945.99
2022-09-16T07:51:13.422Z,945.96
2022-09-16T07:52:13.414Z,945.95
2022-09-16T07:53:13.402Z,945.98
2022-09-16T07:54:13.394Z,945.95
2022-09-16T07:55:13.386Z,945.96
2022-09-16T07:56:13.376Z,945.94
2022-09-16T07:57:13.366Z,945.98
2022-09-16T07:58:13.357Z,945.99
2022-09-16T07:59:14.438Z,945.98
2022-09-16T08:00:13.337Z,945.97
2022-09-16T08:01:13.350Z,945.99
2022-09-16T08:02:13.461Z,945.97
2022-09-16T08:03:13.409Z,945.99
2022-09-16T08:04:13.299Z,946
2022-09-16T08:05:13.413Z,946
2022-09-16T08:06:13.286Z,946.03
2022-09-16T08:07:13.270Z,946.04
2022-09-16T08:08:13.259Z,946.06
2022-09-16T08:10:13.265Z,946.02
2022-09-16T08:11:13.235Z,946.04
2022-09-16T08:12:13.222Z,946.04
2022-09-16T08:13:13.214Z,946
2022-09-16T08:14:13.206Z,946
2022-09-16T08:15:13.238Z,945.99
2022-09-16T08:16:13.243Z,945.92
2022-09-16T08:17:13.186Z,945.94
2022-09-16T08:18:13.167Z,945.93
2022-09-16T08:19:13.159Z,945.96
2022-09-16T08:20:13.161Z,945.99
2022-09-16T08:21:13.264Z,945.98
2022-09-16T08:22:13.130Z,945.96
2022-09-16T08:23:13.124Z,946.05
2022-09-16T08:24:13.114Z,946.04
2022-09-16T08:25:13.104Z,945.94
2022-09-16T08:26:13.094Z,945.93
2022-09-16T08:27:13.087Z,945.98
